sensor_id;sensor_type;location;lat;lon;timestamp;P1;durP1;ratioP1;P2;durP2;ratioP2
41139;SDS011;26881;48.784;9.192;2023-08-12T00:00:27;4.65;;;4.25;;
41139;SDS011;26881;48.784;9.192;2023-08-12T00:05:49;5.68;;;4.55;;
41139;SDS011;26881;48.784;9.192;2023-08-12T00:11:11;5.60;;;5.00;;
41139;SDS011;26881;48.784;9.192;2023-08-12T00:16:33;6.53;;;4.22;;
41139;SDS011;26881;48.784;9.192;2023-08-12T00:21:55;5.50;;;4.70;;
41139;SDS011;26881;48.784;9.192;2023-08-12T00:27:17;5.78;;;4.57;;
41139;SDS011;26881;48.784;9.192;2023-08-12T00:32:39;10.27;;;4.30;;
41139;SDS011;26881;48.784;9.192;2023-08-12T00:38:02;5.90;;;4.15;;
41139;SDS011;26881;48.784;9.192;2023-08-12T00:43:24;6.25;;;4.70;;
41139;SDS011;26881;48.784;9.192;2023-08-12T00:48:46;6.55;;;4.57;;
41139;SDS011;26881;48.784;9.192;2023-08-12T00:54:10;6.80;;;5.07;;
41139;SDS011;26881;48.784;9.192;2023-08-12T00:59:35;5.22;;;4.72;;
41139;SDS011;26881;48.784;9.192;2023-08-12T01:05:01;6.78;;;4.75;;
41139;SDS011;26881;48.784;9.192;2023-08-12T01:10:23;6.43;;;4.60;;
41139;SDS011;26881;48.784;9.192;2023-08-12T01:15:50;9.10;;;5.32;;
41139;SDS011;26881;48.784;9.192;2023-08-12T01:21:16;7.78;;;5.85;;
41139;SDS011;26881;48.784;9.192;2023-08-12T01:26:38;7.35;;;5.22;;
41139;SDS011;26881;48.784;9.192;2023-08-12T01:32:07;6.45;;;5.40;;
41139;SDS011;26881;48.784;9.192;2023-08-12T01:37:33;7.30;;;4.80;;
41139;SDS011;26881;48.784;9.192;2023-08-12T01:42:56;5.40;;;4.32;;
41139;SDS011;26881;48.784;9.192;2023-08-12T01:48:18;5.32;;;4.50;;
41139;SDS011;26881;48.784;9.192;2023-08-12T01:53:44;6.35;;;4.85;;
41139;SDS011;26881;48.784;9.192;2023-08-12T01:59:06;6.07;;;4.38;;
41139;SDS011;26881;48.784;9.192;2023-08-12T02:04:28;4.85;;;4.35;;
41139;SDS011;26881;48.784;9.192;2023-08-12T02:09:51;6.82;;;4.60;;
41139;SDS011;26881;48.784;9.192;2023-08-12T02:15:13;4.82;;;4.32;;
41139;SDS011;26881;48.784;9.192;2023-08-12T02:20:34;7.70;;;4.88;;
41139;SDS011;26881;48.784;9.192;2023-08-12T02:25:56;5.97;;;4.38;;
41139;SDS011;26881;48.784;9.192;2023-08-12T02:31:18;6.28;;;4.43;;
41139;SDS011;26881;48.784;9.192;2023-08-12T02:36:40;9.02;;;4.78;;
41139;SDS011;26881;48.784;9.192;2023-08-12T02:42:02;5.18;;;4.72;;
41139;SDS011;26881;48.784;9.192;2023-08-12T02:47:24;6.00;;;4.82;;
41139;SDS011;26881;48.784;9.192;2023-08-12T02:52:46;7.22;;;4.80;;
41139;SDS011;26881;48.784;9.192;2023-08-12T02:58:08;5.32;;;4.85;;
41139;SDS011;26881;48.784;9.192;2023-08-12T03:03:30;5.72;;;4.90;;
41139;SDS011;26881;48.784;9.192;2023-08-12T03:08:52;7.85;;;5.85;;
41139;SDS011;26881;48.784;9.192;2023-08-12T03:14:14;6.75;;;5.03;;
41139;SDS011;26881;48.784;9.192;2023-08-12T03:19:36;5.78;;;5.18;;
41139;SDS011;26881;48.784;9.192;2023-08-12T03:24:58;7.43;;;5.43;;
41139;SDS011;26881;48.784;9.192;2023-08-12T03:30:20;8.27;;;5.78;;
41139;SDS011;26881;48.784;9.192;2023-08-12T03:35:46;10.63;;;7.20;;
41139;SDS011;26881;48.784;9.192;2023-08-12T03:41:09;5.60;;;4.97;;
41139;SDS011;26881;48.784;9.192;2023-08-12T03:46:31;9.63;;;6.00;;
41139;SDS011;26881;48.784;9.192;2023-08-12T03:51:53;8.80;;;5.05;;
41139;SDS011;26881;48.784;9.192;2023-08-12T03:57:15;8.68;;;5.65;;
41139;SDS011;26881;48.784;9.192;2023-08-12T04:02:37;6.63;;;5.15;;
41139;SDS011;26881;48.784;9.192;2023-08-12T04:07:59;6.13;;;4.72;;
41139;SDS011;26881;48.784;9.192;2023-08-12T04:13:20;5.07;;;4.68;;
41139;SDS011;26881;48.784;9.192;2023-08-12T04:18:42;8.55;;;5.43;;
41139;SDS011;26881;48.784;9.192;2023-08-12T04:24:04;7.93;;;4.60;;
41139;SDS011;26881;48.784;9.192;2023-08-12T04:29:27;5.57;;;5.07;;
41139;SDS011;26881;48.784;9.192;2023-08-12T04:34:49;8.38;;;6.00;;
41139;SDS011;26881;48.784;9.192;2023-08-12T04:40:10;7.80;;;5.68;;
41139;SDS011;26881;48.784;9.192;2023-08-12T04:45:33;7.40;;;5.20;;
41139;SDS011;26881;48.784;9.192;2023-08-12T04:50:55;5.18;;;4.78;;
41139;SDS011;26881;48.784;9.192;2023-08-12T04:56:21;6.78;;;5.13;;
41139;SDS011;26881;48.784;9.192;2023-08-12T05:01:43;10.02;;;5.72;;
41139;SDS011;26881;48.784;9.192;2023-08-12T05:07:23;7.05;;;5.75;;
41139;SDS011;26881;48.784;9.192;2023-08-12T05:12:45;6.05;;;5.10;;
41139;SDS011;26881;48.784;9.192;2023-08-12T05:18:07;5.97;;;5.20;;
41139;SDS011;26881;48.784;9.192;2023-08-12T05:23:29;8.68;;;6.40;;
41139;SDS011;26881;48.784;9.192;2023-08-12T05:28:51;7.78;;;5.20;;
41139;SDS011;26881;48.784;9.192;2023-08-12T05:34:13;6.10;;;5.50;;
41139;SDS011;26881;48.784;9.192;2023-08-12T05:39:35;6.00;;;5.07;;
41139;SDS011;26881;48.784;9.192;2023-08-12T05:44:57;9.07;;;6.90;;
41139;SDS011;26881;48.784;9.192;2023-08-12T05:50:19;6.10;;;5.50;;
41139;SDS011;26881;48.784;9.192;2023-08-12T05:55:41;7.25;;;4.95;;
41139;SDS011;26881;48.784;9.192;2023-08-12T06:01:02;9.55;;;5.20;;
41139;SDS011;26881;48.784;9.192;2023-08-12T06:06:24;6.75;;;6.03;;
41139;SDS011;26881;48.784;9.192;2023-08-12T06:11:46;7.80;;;5.90;;
41139;SDS011;26881;48.784;9.192;2023-08-12T06:17:08;6.43;;;5.78;;
41139;SDS011;26881;48.784;9.192;2023-08-12T06:22:30;7.57;;;5.97;;
41139;SDS011;26881;48.784;9.192;2023-08-12T06:27:52;10.77;;;6.00;;
41139;SDS011;26881;48.784;9.192;2023-08-12T06:33:14;7.10;;;6.25;;
41139;SDS011;26881;48.784;9.192;2023-08-12T06:38:36;10.15;;;5.95;;
41139;SDS011;26881;48.784;9.192;2023-08-12T06:43:58;10.63;;;6.10;;
41139;SDS011;26881;48.784;9.192;2023-08-12T06:49:20;8.25;;;6.38;;
41139;SDS011;26881;48.784;9.192;2023-08-12T06:54:42;5.97;;;5.07;;
41139;SDS011;26881;48.784;9.192;2023-08-12T07:00:04;6.90;;;5.07;;
41139;SDS011;26881;48.784;9.192;2023-08-12T07:05:26;7.55;;;5.20;;
41139;SDS011;26881;48.784;9.192;2023-08-12T07:10:48;8.57;;;4.68;;
41139;SDS011;26881;48.784;9.192;2023-08-12T07:16:10;5.75;;;4.35;;
41139;SDS011;26881;48.784;9.192;2023-08-12T07:21:32;5.78;;;4.40;;
41139;SDS011;26881;48.784;9.192;2023-08-12T07:26:54;6.93;;;4.97;;
41139;SDS011;26881;48.784;9.192;2023-08-12T07:32:16;7.95;;;4.68;;
41139;SDS011;26881;48.784;9.192;2023-08-12T07:37:38;4.90;;;4.40;;
41139;SDS011;26881;48.784;9.192;2023-08-12T07:43:00;7.85;;;4.95;;
41139;SDS011;26881;48.784;9.192;2023-08-12T07:48:22;6.63;;;4.53;;
41139;SDS011;26881;48.784;9.192;2023-08-12T07:53:44;6.47;;;4.80;;
41139;SDS011;26881;48.784;9.192;2023-08-12T07:59:06;8.43;;;5.05;;
41139;SDS011;26881;48.784;9.192;2023-08-12T08:04:28;7.18;;;4.68;;
41139;SDS011;26881;48.784;9.192;2023-08-12T08:09:51;6.65;;;4.47;;
41139;SDS011;26881;48.784;9.192;2023-08-12T08:15:13;7.85;;;4.75;;
41139;SDS011;26881;48.784;9.192;2023-08-12T08:20:35;7.53;;;4.40;;
41139;SDS011;26881;48.784;9.192;2023-08-12T08:25:57;10.07;;;4.57;;
41139;SDS011;26881;48.784;9.192;2023-08-12T08:31:19;9.52;;;5.00;;
41139;SDS011;26881;48.784;9.192;2023-08-12T08:36:41;10.25;;;4.53;;
41139;SDS011;26881;48.784;9.192;2023-08-12T08:42:04;5.72;;;4.75;;
41139;SDS011;26881;48.784;9.192;2023-08-12T08:47:28;5.30;;;4.28;;
41139;SDS011;26881;48.784;9.192;2023-08-12T08:52:50;8.93;;;3.88;;
41139;SDS011;26881;48.784;9.192;2023-08-12T08:58:13;7.30;;;4.10;;
41139;SDS011;26881;48.784;9.192;2023-08-12T09:03:41;4.82;;;4.28;;
41139;SDS011;26881;48.784;9.192;2023-08-12T09:09:05;7.05;;;4.30;;
41139;SDS011;26881;48.784;9.192;2023-08-12T09:14:32;4.35;;;3.78;;
41139;SDS011;26881;48.784;9.192;2023-08-12T09:19:55;6.75;;;3.83;;
41139;SDS011;26881;48.784;9.192;2023-08-12T09:25:17;7.03;;;3.88;;
41139;SDS011;26881;48.784;9.192;2023-08-12T09:30:42;8.93;;;4.43;;
41139;SDS011;26881;48.784;9.192;2023-08-12T09:36:04;8.77;;;3.80;;
41139;SDS011;26881;48.784;9.192;2023-08-12T09:41:26;8.20;;;3.88;;
41139;SDS011;26881;48.784;9.192;2023-08-12T09:46:48;14.95;;;3.75;;
41139;SDS011;26881;48.784;9.192;2023-08-12T09:52:10;6.95;;;3.33;;
41139;SDS011;26881;48.784;9.192;2023-08-12T09:57:33;7.38;;;3.20;;
41139;SDS011;26881;48.784;9.192;2023-08-12T10:02:58;1.95;;;1.85;;
41139;SDS011;26881;48.784;9.192;2023-08-12T10:08:22;3.33;;;2.40;;
41139;SDS011;26881;48.784;9.192;2023-08-12T10:13:44;3.10;;;2.80;;
41139;SDS011;26881;48.784;9.192;2023-08-12T10:19:11;4.15;;;2.78;;
41139;SDS011;26881;48.784;9.192;2023-08-12T10:24:34;4.10;;;2.75;;
41139;SDS011;26881;48.784;9.192;2023-08-12T10:29:56;3.58;;;2.90;;
41139;SDS011;26881;48.784;9.192;2023-08-12T10:35:19;4.72;;;2.88;;
41139;SDS011;26881;48.784;9.192;2023-08-12T10:40:41;3.63;;;2.97;;
41139;SDS011;26881;48.784;9.192;2023-08-12T10:46:03;4.03;;;2.78;;
41139;SDS011;26881;48.784;9.192;2023-08-12T10:57:05;3.10;;;2.60;;
41139;SDS011;26881;48.784;9.192;2023-08-12T11:02:30;4.70;;;2.45;;
41139;SDS011;26881;48.784;9.192;2023-08-12T11:07:58;2.70;;;2.50;;
41139;SDS011;26881;48.784;9.192;2023-08-12T11:13:26;4.10;;;2.42;;
41139;SDS011;26881;48.784;9.192;2023-08-12T11:18:48;8.70;;;2.50;;
41139;SDS011;26881;48.784;9.192;2023-08-12T11:24:10;2.53;;;2.33;;
41139;SDS011;26881;48.784;9.192;2023-08-12T11:29:33;3.40;;;2.25;;
41139;SDS011;26881;48.784;9.192;2023-08-12T11:34:55;3.22;;;2.13;;
41139;SDS011;26881;48.784;9.192;2023-08-12T11:40:17;2.42;;;2.20;;
41139;SDS011;26881;48.784;9.192;2023-08-12T11:45:41;4.68;;;2.10;;
41139;SDS011;26881;48.784;9.192;2023-08-12T11:51:03;3.38;;;2.55;;
41139;SDS011;26881;48.784;9.192;2023-08-12T11:56:25;4.65;;;2.70;;
41139;SDS011;26881;48.784;9.192;2023-08-12T12:01:50;6.07;;;2.78;;
41139;SDS011;26881;48.784;9.192;2023-08-12T12:07:22;4.35;;;2.45;;
41139;SDS011;26881;48.784;9.192;2023-08-12T12:12:46;3.30;;;2.85;;
41139;SDS011;26881;48.784;9.192;2023-08-12T12:18:11;4.43;;;3.03;;
41139;SDS011;26881;48.784;9.192;2023-08-12T12:23:34;6.32;;;3.13;;
41139;SDS011;26881;48.784;9.192;2023-08-12T12:28:59;5.05;;;2.47;;
41139;SDS011;26881;48.784;9.192;2023-08-12T12:34:20;3.17;;;2.80;;
41139;SDS011;26881;48.784;9.192;2023-08-12T12:39:43;4.07;;;2.92;;
41139;SDS011;26881;48.784;9.192;2023-08-12T12:45:05;6.55;;;3.58;;
41139;SDS011;26881;48.784;9.192;2023-08-12T12:50:27;4.50;;;3.50;;
41139;SDS011;26881;48.784;9.192;2023-08-12T12:55:49;5.20;;;3.92;;
41139;SDS011;26881;48.784;9.192;2023-08-12T13:01:11;5.47;;;3.15;;
41139;SDS011;26881;48.784;9.192;2023-08-12T13:06:33;7.97;;;3.53;;
41139;SDS011;26881;48.784;9.192;2023-08-12T13:11:55;5.15;;;3.80;;
41139;SDS011;26881;48.784;9.192;2023-08-12T13:17:18;4.75;;;3.83;;
41139;SDS011;26881;48.784;9.192;2023-08-12T13:22:40;5.05;;;3.70;;
41139;SDS011;26881;48.784;9.192;2023-08-12T13:28:03;4.75;;;4.00;;
41139;SDS011;26881;48.784;9.192;2023-08-12T13:33:25;5.72;;;3.88;;
41139;SDS011;26881;48.784;9.192;2023-08-12T13:38:47;7.45;;;4.20;;
41139;SDS011;26881;48.784;9.192;2023-08-12T13:44:09;6.18;;;4.68;;
41139;SDS011;26881;48.784;9.192;2023-08-12T13:49:31;5.47;;;4.28;;
41139;SDS011;26881;48.784;9.192;2023-08-12T13:54:53;7.88;;;4.10;;
41139;SDS011;26881;48.784;9.192;2023-08-12T14:00:15;5.07;;;4.43;;
41139;SDS011;26881;48.784;9.192;2023-08-12T14:05:37;8.48;;;3.35;;
41139;SDS011;26881;48.784;9.192;2023-08-12T14:10:59;5.32;;;3.30;;
41139;SDS011;26881;48.784;9.192;2023-08-12T14:16:21;3.90;;;3.03;;
41139;SDS011;26881;48.784;9.192;2023-08-12T14:21:43;3.97;;;2.95;;
41139;SDS011;26881;48.784;9.192;2023-08-12T14:27:05;4.28;;;3.20;;
41139;SDS011;26881;48.784;9.192;2023-08-12T14:32:27;4.18;;;3.50;;
41139;SDS011;26881;48.784;9.192;2023-08-12T14:37:49;6.35;;;4.10;;
41139;SDS011;26881;48.784;9.192;2023-08-12T14:43:11;5.72;;;3.20;;
41139;SDS011;26881;48.784;9.192;2023-08-12T14:48:33;3.65;;;3.17;;
41139;SDS011;26881;48.784;9.192;2023-08-12T14:53:55;6.57;;;2.60;;
41139;SDS011;26881;48.784;9.192;2023-08-12T14:59:17;4.10;;;2.63;;
41139;SDS011;26881;48.784;9.192;2023-08-12T15:04:39;4.35;;;2.10;;
41139;SDS011;26881;48.784;9.192;2023-08-12T15:10:01;2.95;;;2.00;;
41139;SDS011;26881;48.784;9.192;2023-08-12T15:15:23;3.65;;;2.13;;
41139;SDS011;26881;48.784;9.192;2023-08-12T15:20:45;2.17;;;1.98;;
41139;SDS011;26881;48.784;9.192;2023-08-12T15:26:07;3.63;;;1.73;;
41139;SDS011;26881;48.784;9.192;2023-08-12T15:31:29;2.60;;;2.38;;
41139;SDS011;26881;48.784;9.192;2023-08-12T15:36:51;3.38;;;1.90;;
41139;SDS011;26881;48.784;9.192;2023-08-12T15:42:13;2.22;;;1.88;;
41139;SDS011;26881;48.784;9.192;2023-08-12T15:47:35;2.15;;;1.95;;
41139;SDS011;26881;48.784;9.192;2023-08-12T15:52:57;2.30;;;1.85;;
41139;SDS011;26881;48.784;9.192;2023-08-12T15:58:19;4.47;;;2.20;;
41139;SDS011;26881;48.784;9.192;2023-08-12T16:03:41;3.10;;;2.10;;
41139;SDS011;26881;48.784;9.192;2023-08-12T16:09:04;3.08;;;2.78;;
41139;SDS011;26881;48.784;9.192;2023-08-12T16:14:39;3.05;;;2.72;;
41139;SDS011;26881;48.784;9.192;2023-08-12T16:20:01;3.78;;;2.70;;
41139;SDS011;26881;48.784;9.192;2023-08-12T16:25:24;3.78;;;3.30;;
41139;SDS011;26881;48.784;9.192;2023-08-12T16:30:46;4.10;;;3.10;;
41139;SDS011;26881;48.784;9.192;2023-08-12T16:36:08;5.88;;;4.35;;
41139;SDS011;26881;48.784;9.192;2023-08-12T16:41:29;6.07;;;4.93;;
41139;SDS011;26881;48.784;9.192;2023-08-12T16:46:51;7.30;;;6.18;;
41139;SDS011;26881;48.784;9.192;2023-08-12T16:52:13;8.88;;;5.40;;
41139;SDS011;26881;48.784;9.192;2023-08-12T16:57:36;6.43;;;4.38;;
41139;SDS011;26881;48.784;9.192;2023-08-12T17:02:58;8.43;;;4.25;;
41139;SDS011;26881;48.784;9.192;2023-08-12T17:08:20;5.43;;;3.90;;
41139;SDS011;26881;48.784;9.192;2023-08-12T17:13:42;3.40;;;3.10;;
41139;SDS011;26881;48.784;9.192;2023-08-12T17:19:04;3.55;;;3.10;;
41139;SDS011;26881;48.784;9.192;2023-08-12T17:24:26;4.78;;;2.70;;
41139;SDS011;26881;48.784;9.192;2023-08-12T17:29:48;3.08;;;2.47;;
41139;SDS011;26881;48.784;9.192;2023-08-12T17:35:10;3.88;;;2.70;;
41139;SDS011;26881;48.784;9.192;2023-08-12T17:40:32;3.70;;;2.90;;
41139;SDS011;26881;48.784;9.192;2023-08-12T17:45:54;2.85;;;2.65;;
41139;SDS011;26881;48.784;9.192;2023-08-12T17:51:16;2.55;;;2.35;;
41139;SDS011;26881;48.784;9.192;2023-08-12T17:56:38;2.60;;;2.40;;
41139;SDS011;26881;48.784;9.192;2023-08-12T18:02:00;5.65;;;2.42;;
41139;SDS011;26881;48.784;9.192;2023-08-12T18:07:22;2.75;;;2.50;;
41139;SDS011;26881;48.784;9.192;2023-08-12T18:12:44;2.78;;;2.20;;
41139;SDS011;26881;48.784;9.192;2023-08-12T18:18:06;2.83;;;2.10;;
41139;SDS011;26881;48.784;9.192;2023-08-12T18:23:28;4.53;;;2.38;;
41139;SDS011;26881;48.784;9.192;2023-08-12T18:28:50;2.50;;;2.22;;
41139;SDS011;26881;48.784;9.192;2023-08-12T18:34:12;2.50;;;2.28;;
41139;SDS011;26881;48.784;9.192;2023-08-12T18:39:34;8.13;;;2.80;;
41139;SDS011;26881;48.784;9.192;2023-08-12T18:44:56;3.90;;;3.50;;
41139;SDS011;26881;48.784;9.192;2023-08-12T18:50:18;4.00;;;3.22;;
41139;SDS011;26881;48.784;9.192;2023-08-12T18:55:40;3.30;;;3.00;;
41139;SDS011;26881;48.784;9.192;2023-08-12T19:01:02;5.32;;;3.45;;
41139;SDS011;26881;48.784;9.192;2023-08-12T19:06:24;4.68;;;3.42;;
41139;SDS011;26881;48.784;9.192;2023-08-12T19:11:46;4.57;;;3.35;;
41139;SDS011;26881;48.784;9.192;2023-08-12T19:17:08;4.93;;;3.88;;
41139;SDS011;26881;48.784;9.192;2023-08-12T19:22:30;3.72;;;3.40;;
41139;SDS011;26881;48.784;9.192;2023-08-12T19:27:52;4.75;;;3.90;;
41139;SDS011;26881;48.784;9.192;2023-08-12T19:33:17;6.22;;;4.65;;
41139;SDS011;26881;48.784;9.192;2023-08-12T19:38:40;6.93;;;4.80;;
41139;SDS011;26881;48.784;9.192;2023-08-12T19:44:02;6.75;;;4.80;;
41139;SDS011;26881;48.784;9.192;2023-08-12T19:49:26;3.70;;;3.22;;
41139;SDS011;26881;48.784;9.192;2023-08-12T19:54:48;3.50;;;3.20;;
41139;SDS011;26881;48.784;9.192;2023-08-12T20:00:10;5.25;;;4.45;;
41139;SDS011;26881;48.784;9.192;2023-08-12T20:05:34;4.65;;;3.58;;
41139;SDS011;26881;48.784;9.192;2023-08-12T20:10:56;5.75;;;4.72;;
41139;SDS011;26881;48.784;9.192;2023-08-12T20:16:18;5.88;;;4.78;;
41139;SDS011;26881;48.784;9.192;2023-08-12T20:21:40;7.00;;;4.78;;
41139;SDS011;26881;48.784;9.192;2023-08-12T20:27:01;6.32;;;4.90;;
41139;SDS011;26881;48.784;9.192;2023-08-12T20:32:23;7.13;;;4.95;;
41139;SDS011;26881;48.784;9.192;2023-08-12T20:37:49;6.72;;;5.28;;
41139;SDS011;26881;48.784;9.192;2023-08-12T20:43:12;6.78;;;6.10;;
41139;SDS011;26881;48.784;9.192;2023-08-12T20:48:33;7.07;;;5.88;;
41139;SDS011;26881;48.784;9.192;2023-08-12T20:53:55;9.88;;;6.80;;
41139;SDS011;26881;48.784;9.192;2023-08-12T20:59:18;10.20;;;7.07;;
41139;SDS011;26881;48.784;9.192;2023-08-12T21:04:40;9.63;;;6.15;;
41139;SDS011;26881;48.784;9.192;2023-08-12T21:10:02;8.27;;;5.90;;
41139;SDS011;26881;48.784;9.192;2023-08-12T21:15:24;6.80;;;5.65;;
41139;SDS011;26881;48.784;9.192;2023-08-12T21:20:46;8.68;;;6.25;;
41139;SDS011;26881;48.784;9.192;2023-08-12T21:26:08;6.97;;;5.72;;
41139;SDS011;26881;48.784;9.192;2023-08-12T21:31:30;5.97;;;5.22;;
41139;SDS011;26881;48.784;9.192;2023-08-12T21:36:52;5.97;;;5.47;;
41139;SDS011;26881;48.784;9.192;2023-08-12T21:42:14;7.40;;;5.63;;
41139;SDS011;26881;48.784;9.192;2023-08-12T21:47:36;6.93;;;6.22;;
41139;SDS011;26881;48.784;9.192;2023-08-12T21:52:58;7.25;;;6.55;;
41139;SDS011;26881;48.784;9.192;2023-08-12T21:58:20;12.73;;;7.10;;
41139;SDS011;26881;48.784;9.192;2023-08-12T22:03:42;6.82;;;6.05;;
41139;SDS011;26881;48.784;9.192;2023-08-12T22:09:04;6.28;;;5.60;;
41139;SDS011;26881;48.784;9.192;2023-08-12T22:14:26;6.80;;;6.10;;
41139;SDS011;26881;48.784;9.192;2023-08-12T22:19:48;6.45;;;5.85;;
41139;SDS011;26881;48.784;9.192;2023-08-12T22:25:10;7.63;;;6.03;;
41139;SDS011;26881;48.784;9.192;2023-08-12T22:30:32;7.63;;;6.90;;
41139;SDS011;26881;48.784;9.192;2023-08-12T22:35:54;9.18;;;6.55;;
41139;SDS011;26881;48.784;9.192;2023-08-12T22:41:16;7.43;;;5.47;;
41139;SDS011;26881;48.784;9.192;2023-08-12T22:46:38;7.90;;;5.68;;
41139;SDS011;26881;48.784;9.192;2023-08-12T22:52:00;7.75;;;6.30;;
41139;SDS011;26881;48.784;9.192;2023-08-12T22:57:21;6.43;;;5.70;;
41139;SDS011;26881;48.784;9.192;2023-08-12T23:02:45;11.20;;;5.93;;
41139;SDS011;26881;48.784;9.192;2023-08-12T23:08:07;6.25;;;5.40;;
41139;SDS011;26881;48.784;9.192;2023-08-12T23:13:29;6.70;;;5.70;;
41139;SDS011;26881;48.784;9.192;2023-08-12T23:18:51;6.68;;;5.30;;
41139;SDS011;26881;48.784;9.192;2023-08-12T23:24:13;8.85;;;5.47;;
41139;SDS011;26881;48.784;9.192;2023-08-12T23:29:35;7.38;;;5.28;;
41139;SDS011;26881;48.784;9.192;2023-08-12T23:34:57;6.38;;;5.75;;
41139;SDS011;26881;48.784;9.192;2023-08-12T23:40:19;9.50;;;5.40;;
41139;SDS011;26881;48.784;9.192;2023-08-12T23:45:41;12.35;;;5.50;;
41139;SDS011;26881;48.784;9.192;2023-08-12T23:51:02;9.68;;;5.97;;
41139;SDS011;26881;48.784;9.192;2023-08-12T23:56:24;8.30;;;5.68;;
